Time;durP1;ratioP1;P1;durP2;ratioP2;P2;SDS_P1;SDS_P2;PMS_P1;PMS_P2;Temp;Humidity;BMP_temperature;BMP_pressure;BME280_temperature;BME280_humidity;BME280_pressure;Samples;Min_cycle;Max_cycle;Signal;HPM_P1;HPM_P2
2022/10/10 00:00:03;;;;;;;0.00;0.00;;;;;;;;;;1740151;28;20664;-70
2022/10/10 00:00:54;;;;;;;0.00;0.00;;;;;;;;;;1740684;28;20647;-72
2022/10/10 00:01:46;;;;;;;0.00;0.00;;;;;;;;;;1740147;28;20195;-72
2022/10/10 00:02:37;;;;;;;0.00;0.00;;;;;;;;;;1740732;28;20234;-72
2022/10/10 00:03:29;;;;;;;0.00;0.00;;;;;;;;;;1740195;28;20194;-72
2022/10/10 00:04:20;;;;;;;0.00;0.00;;;;;;;;;;1740755;28;20257;-72
2022/10/10 00:05:13;;;;;;;0.00;0.00;;;;;;;;;;1740135;28;20674;-72
2022/10/10 00:06:05;;;;;;;0.00;0.00;;;;;;;;;;1740538;28;20684;-72
2022/10/10 00:06:57;;;;;;;0.00;0.00;;;;;;;;;;1740320;28;20289;-72
2022/10/10 00:07:48;;;;;;;0.00;0.00;;;;;;;;;;1740145;28;20199;-72
2022/10/10 00:08:40;;;;;;;0.00;0.00;;;;;;;;;;1740716;28;20617;-72
2022/10/10 00:09:31;;;;;;;0.00;0.00;;;;;;;;;;1740028;28;20203;-72
2022/10/10 00:10:23;;;;;;;0.00;0.00;;;;;;;;;;1740639;28;20179;-72
2022/10/10 00:11:15;;;;;;;0.00;0.00;;;;;;;;;;1740226;28;20252;-72
2022/10/10 00:12:07;;;;;;;0.00;0.00;;;;;;;;;;1740485;28;20203;-72
2022/10/10 00:12:59;;;;;;;0.00;0.00;;;;;;;;;;1740537;28;20225;-72
2022/10/10 00:13:51;;;;;;;0.00;0.00;;;;;;;;;;1740778;28;20586;-72
2022/10/10 00:14:42;;;;;;;0.00;0.00;;;;;;;;;;1740635;28;20195;-72
2022/10/10 00:15:34;;;;;;;0.00;0.00;;;;;;;;;;1740632;28;20195;-72
2022/10/10 00:16:25;;;;;;;0.00;0.00;;;;;;;;;;1740551;28;20206;-70
2022/10/10 00:17:17;;;;;;;0.00;0.00;;;;;;;;;;1740469;28;20244;-70
2022/10/10 00:18:08;;;;;;;0.00;0.00;;;;;;;;;;1740546;28;20294;-70
2022/10/10 00:19:00;;;;;;;0.00;0.00;;;;;;;;;;1740649;28;20206;-70
2022/10/10 00:19:51;;;;;;;0.00;0.00;;;;;;;;;;1739992;28;20303;-71
2022/10/10 00:20:44;;;;;;;0.00;0.00;;;;;;;;;;1740899;28;20226;-70
2022/10/10 00:21:37;;;;;;;0.00;0.00;;;;;;;;;;1739833;28;20211;-71
2022/10/10 00:22:28;;;;;;;0.00;0.00;;;;;;;;;;1739231;28;20253;-70
2022/10/10 00:23:20;;;;;;;0.00;0.00;;;;;;;;;;1740345;28;20206;-70
2022/10/10 00:24:11;;;;;;;0.10;0.10;;;;;;;;;;1740422;28;20258;-70
2022/10/10 00:25:07;;;;;;;0.00;0.00;;;;;;;;;;1740623;28;20198;-70
2022/10/10 00:25:59;;;;;;;0.00;0.00;;;;;;;;;;1740447;28;20683;-71
2022/10/10 00:26:51;;;;;;;0.00;0.00;;;;;;;;;;1739766;28;20198;-72
2022/10/10 00:27:42;;;;;;;0.00;0.00;;;;;;;;;;1740345;28;20230;-71
2022/10/10 00:28:37;;;;;;;0.00;0.00;;;;;;;;;;1740321;28;20214;-71
2022/10/10 00:29:28;;;;;;;0.00;0.00;;;;;;;;;;1741033;28;20552;-72
2022/10/10 00:30:20;;;;;;;0.00;0.00;;;;;;;;;;1747503;28;20640;-71
2022/10/10 00:31:11;;;;;;;0.00;0.00;;;;;;;;;;1747199;28;20264;-71
2022/10/10 00:32:03;;;;;;;0.00;0.00;;;;;;;;;;1746507;28;20206;-71
2022/10/10 00:32:54;;;;;;;0.00;0.00;;;;;;;;;;1745694;28;20234;-72
2022/10/10 00:33:47;;;;;;;0.00;0.00;;;;;;;;;;1740438;28;20225;-71
2022/10/10 00:34:38;;;;;;;0.00;0.00;;;;;;;;;;1739831;28;20636;-71
2022/10/10 00:35:30;;;;;;;0.00;0.00;;;;;;;;;;1740877;28;20698;-72
2022/10/10 00:36:22;;;;;;;0.10;0.10;;;;;;;;;;1739979;28;20241;-70
2022/10/10 00:37:14;;;;;;;0.00;0.00;;;;;;;;;;1740238;28;20614;-70
2022/10/10 00:38:05;;;;;;;0.00;0.00;;;;;;;;;;1740002;28;20684;-70
2022/10/10 00:38:57;;;;;;;0.00;0.00;;;;;;;;;;1740516;28;20592;-70
2022/10/10 00:39:49;;;;;;;0.00;0.00;;;;;;;;;;1740033;28;20203;-70
2022/10/10 00:40:45;;;;;;;0.00;0.00;;;;;;;;;;1740533;28;20195;-70
2022/10/10 00:41:36;;;;;;;0.00;0.00;;;;;;;;;;1740150;28;20697;-72
2022/10/10 00:42:28;;;;;;;0.00;0.00;;;;;;;;;;1739819;28;20199;-72
2022/10/10 00:43:20;;;;;;;0.00;0.00;;;;;;;;;;1740077;28;21039;-71
2022/10/10 00:44:13;;;;;;;0.00;0.00;;;;;;;;;;1740250;28;20677;-72
2022/10/10 00:45:27;;;;;;;0.00;0.00;;;;;;;;;;1740162;28;20507;-72
2022/10/10 00:46:19;;;;;;;0.00;0.00;;;;;;;;;;1740216;28;20246;-70
2022/10/10 00:47:11;;;;;;;0.00;0.00;;;;;;;;;;1740260;28;20751;-70
2022/10/10 00:48:05;;;;;;;0.00;0.00;;;;;;;;;;1739788;28;20207;-70
2022/10/10 00:48:56;;;;;;;0.05;0.05;;;;;;;;;;1740177;28;20689;-70
2022/10/10 00:49:48;;;;;;;0.00;0.00;;;;;;;;;;1740074;28;20195;-70
2022/10/10 00:50:42;;;;;;;0.10;0.10;;;;;;;;;;1740545;28;20231;-70
2022/10/10 00:51:36;;;;;;;0.00;0.00;;;;;;;;;;1740140;28;20195;-71
2022/10/10 00:52:27;;;;;;;0.00;0.00;;;;;;;;;;1740155;28;20210;-71
2022/10/10 00:53:21;;;;;;;0.00;0.00;;;;;;;;;;1739193;28;20238;-72
2022/10/10 00:54:13;;;;;;;0.00;0.00;;;;;;;;;;1740380;28;20677;-72
2022/10/10 00:55:06;;;;;;;0.00;0.00;;;;;;;;;;1740298;28;20264;-72
2022/10/10 00:55:58;;;;;;;0.00;0.00;;;;;;;;;;1740400;28;20238;-70
2022/10/10 00:56:52;;;;;;;0.00;0.00;;;;;;;;;;1739822;28;20214;-71
2022/10/10 00:57:43;;;;;;;0.00;0.00;;;;;;;;;;1740141;28;20257;-70
2022/10/10 00:58:36;;;;;;;0.00;0.00;;;;;;;;;;1739952;28;20206;-70
2022/10/10 00:59:30;;;;;;;0.00;0.00;;;;;;;;;;1739912;28;20198;-71
2022/10/10 01:00:22;;;;;;;0.00;0.00;;;;;;;;;;1740609;28;20199;-70
2022/10/10 01:01:14;;;;;;;0.00;0.00;;;;;;;;;;1740033;28;20289;-70
2022/10/10 01:02:06;;;;;;;0.00;0.00;;;;;;;;;;1740142;28;20660;-70
2022/10/10 01:02:57;;;;;;;0.00;0.00;;;;;;;;;;1740084;28;20275;-70
2022/10/10 01:03:49;;;;;;;0.00;0.00;;;;;;;;;;1739979;28;20210;-70
2022/10/10 01:04:41;;;;;;;0.00;0.00;;;;;;;;;;1739684;28;20241;-70
2022/10/10 01:05:33;;;;;;;0.00;0.00;;;;;;;;;;1740318;28;20260;-70
2022/10/10 01:06:24;;;;;;;0.00;0.00;;;;;;;;;;1740023;28;20234;-70
2022/10/10 01:07:20;;;;;;;0.00;0.00;;;;;;;;;;1740122;28;20268;-70
2022/10/10 01:08:11;;;;;;;0.00;0.00;;;;;;;;;;1740028;28;20298;-70
2022/10/10 01:09:03;;;;;;;0.00;0.00;;;;;;;;;;1739938;28;20199;-70
2022/10/10 01:09:56;;;;;;;0.00;0.00;;;;;;;;;;1739834;28;20485;-70
2022/10/10 01:10:56;;;;;;;0.00;0.00;;;;;;;;;;1740713;28;20198;-71
2022/10/10 01:11:51;;;;;;;0.00;0.00;;;;;;;;;;1739668;28;20258;-71
2022/10/10 01:12:53;;;;;;;0.00;0.00;;;;;;;;;;1740305;28;20269;-71
2022/10/10 01:13:51;;;;;;;0.10;0.10;;;;;;;;;;1739865;28;20625;-70
2022/10/10 01:14:47;;;;;;;0.00;0.00;;;;;;;;;;1739943;28;20191;-70
2022/10/10 01:15:43;;;;;;;0.00;0.00;;;;;;;;;;1740472;28;20198;-71
2022/10/10 01:16:38;;;;;;;0.00;0.00;;;;;;;;;;1739991;28;20256;-71
2022/10/10 01:17:31;;;;;;;0.00;0.00;;;;;;;;;;1740005;28;20456;-71
2022/10/10 01:18:29;;;;;;;0.00;0.00;;;;;;;;;;1739903;28;20299;-70
2022/10/10 01:19:30;;;;;;;0.00;0.00;;;;;;;;;;1739999;28;20195;-70
2022/10/10 01:20:37;;;;;;;0.00;0.00;;;;;;;;;;1739595;28;20218;-70
2022/10/10 01:21:31;;;;;;;0.00;0.00;;;;;;;;;;1737394;28;20268;-70
2022/10/10 01:22:27;;;;;;;0.00;0.00;;;;;;;;;;1739937;28;20490;-70
2022/10/10 01:23:26;;;;;;;0.00;0.00;;;;;;;;;;1739951;28;20234;-70
2022/10/10 01:24:35;;;;;;;0.00;0.00;;;;;;;;;;1740278;28;20669;-70
2022/10/10 01:25:28;;;;;;;0.00;0.00;;;;;;;;;;1740559;28;20188;-70
2022/10/10 01:26:32;;;;;;;0.00;0.00;;;;;;;;;;1739829;28;20605;-70
2022/10/10 01:27:30;;;;;;;0.00;0.00;;;;;;;;;;1740343;28;20697;-70
2022/10/10 01:28:28;;;;;;;0.00;0.00;;;;;;;;;;1739879;28;20203;-70
2022/10/10 01:29:24;;;;;;;0.00;0.00;;;;;;;;;;1734834;28;20570;-70
2022/10/10 01:30:17;;;;;;;0.00;0.00;;;;;;;;;;1743251;28;20254;-70
2022/10/10 01:31:11;;;;;;;0.00;0.00;;;;;;;;;;1742736;28;20874;-70
2022/10/10 01:32:04;;;;;;;0.00;0.00;;;;;;;;;;1742213;28;20242;-70
2022/10/10 01:32:58;;;;;;;0.00;0.00;;;;;;;;;;1740894;28;20202;-70
2022/10/10 01:33:54;;;;;;;0.00;0.00;;;;;;;;;;1739877;28;20203;-70
2022/10/10 01:34:52;;;;;;;0.00;0.00;;;;;;;;;;1739629;28;20206;-70
2022/10/10 01:35:48;;;;;;;0.00;0.00;;;;;;;;;;1740563;28;20673;-70
2022/10/10 01:36:45;;;;;;;0.00;0.00;;;;;;;;;;1739381;28;20536;-70
2022/10/10 01:37:41;;;;;;;0.00;0.00;;;;;;;;;;1740249;28;20211;-70
2022/10/10 01:38:36;;;;;;;0.00;0.00;;;;;;;;;;1739759;28;20547;-70
2022/10/10 01:39:31;;;;;;;0.00;0.00;;;;;;;;;;1739817;28;20222;-71
2022/10/10 01:40:26;;;;;;;0.00;0.00;;;;;;;;;;1742622;28;20268;-70
2022/10/10 01:41:19;;;;;;;0.00;0.00;;;;;;;;;;1745113;28;20230;-70
2022/10/10 01:42:14;;;;;;;0.00;0.00;;;;;;;;;;1739406;28;20540;-70
2022/10/10 01:43:07;;;;;;;0.00;0.00;;;;;;;;;;1739731;28;20207;-70
2022/10/10 01:44:00;;;;;;;0.00;0.00;;;;;;;;;;1740025;28;20294;-70
2022/10/10 01:44:52;;;;;;;0.00;0.00;;;;;;;;;;1739776;28;20695;-70
2022/10/10 01:45:45;;;;;;;0.00;0.00;;;;;;;;;;1740416;28;20233;-70
2022/10/10 01:46:36;;;;;;;0.00;0.00;;;;;;;;;;1739740;28;20676;-70
2022/10/10 01:47:28;;;;;;;0.00;0.00;;;;;;;;;;1739579;28;20195;-70
2022/10/10 01:48:20;;;;;;;0.00;0.00;;;;;;;;;;1739802;28;20671;-70
2022/10/10 01:49:12;;;;;;;0.00;0.00;;;;;;;;;;1739810;28;20206;-70
2022/10/10 01:50:05;;;;;;;0.00;0.00;;;;;;;;;;1739956;28;20241;-70
2022/10/10 01:51:11;;;;;;;0.00;0.00;;;;;;;;;;1739815;28;20249;-71
2022/10/10 01:52:05;;;;;;;0.00;0.00;;;;;;;;;;1739536;28;20250;-71
2022/10/10 01:53:05;;;;;;;0.00;0.00;;;;;;;;;;1738912;28;20229;-71
2022/10/10 01:54:03;;;;;;;0.00;0.00;;;;;;;;;;1739875;28;20532;-71
2022/10/10 01:55:00;;;;;;;0.00;0.00;;;;;;;;;;1739680;28;20206;-71
2022/10/10 01:55:53;;;;;;;0.00;0.00;;;;;;;;;;1740266;28;20210;-72
2022/10/10 01:56:48;;;;;;;0.00;0.00;;;;;;;;;;1739652;28;20203;-70
2022/10/10 01:57:44;;;;;;;0.00;0.00;;;;;;;;;;1739817;28;20250;-70
2022/10/10 01:58:50;;;;;;;0.00;0.00;;;;;;;;;;1739483;28;20249;-70
2022/10/10 01:59:46;;;;;;;0.00;0.00;;;;;;;;;;1739422;28;20249;-70
2022/10/10 02:00:46;;;;;;;0.00;0.00;;;;;;;;;;1740205;28;20295;-70
2022/10/10 02:01:44;;;;;;;0.00;0.00;;;;;;;;;;1739545;28;21588;-71
2022/10/10 02:02:40;;;;;;;0.00;0.00;;;;;;;;;;1739932;28;20179;-71
2022/10/10 02:03:35;;;;;;;0.00;0.00;;;;;;;;;;1739091;28;20329;-71
2022/10/10 02:04:30;;;;;;;0.00;0.00;;;;;;;;;;1739853;28;20290;-71
2022/10/10 02:05:24;;;;;;;0.00;0.00;;;;;;;;;;1740070;28;20629;-72
2022/10/10 02:06:20;;;;;;;0.00;0.00;;;;;;;;;;1739690;28;20206;-71
2022/10/10 02:07:15;;;;;;;0.10;0.10;;;;;;;;;;1739898;28;20885;-70
2022/10/10 02:08:09;;;;;;;0.00;0.00;;;;;;;;;;1739496;28;20199;-70
2022/10/10 02:09:03;;;;;;;0.00;0.00;;;;;;;;;;1738653;28;20239;-70
2022/10/10 02:09:55;;;;;;;0.00;0.00;;;;;;;;;;1739662;28;20253;-70
2022/10/10 02:10:48;;;;;;;0.00;0.00;;;;;;;;;;1740112;28;20234;-70
2022/10/10 02:11:40;;;;;;;0.00;0.00;;;;;;;;;;1739459;28;20620;-70
2022/10/10 02:12:32;;;;;;;0.00;0.00;;;;;;;;;;1739612;28;20225;-70
2022/10/10 02:13:27;;;;;;;0.00;0.00;;;;;;;;;;1739415;28;20755;-70
2022/10/10 02:14:21;;;;;;;0.00;0.00;;;;;;;;;;1739583;28;20582;-70
2022/10/10 02:15:14;;;;;;;0.00;0.00;;;;;;;;;;1739715;28;20256;-70
2022/10/10 02:16:08;;;;;;;0.00;0.00;;;;;;;;;;1739658;28;20214;-70
2022/10/10 02:17:00;;;;;;;0.00;0.00;;;;;;;;;;1739751;28;20253;-70
2022/10/10 02:17:52;;;;;;;0.00;0.00;;;;;;;;;;1739376;28;20207;-70
2022/10/10 02:18:45;;;;;;;0.00;0.00;;;;;;;;;;1746162;28;20725;-70
2022/10/10 02:19:38;;;;;;;0.03;0.03;;;;;;;;;;1746032;28;20256;-70
2022/10/10 02:20:30;;;;;;;0.00;0.00;;;;;;;;;;1747051;28;20249;-72
2022/10/10 02:21:23;;;;;;;0.00;0.00;;;;;;;;;;1746378;28;20226;-70
2022/10/10 02:22:14;;;;;;;0.00;0.00;;;;;;;;;;1746302;28;20296;-70
2022/10/10 02:23:07;;;;;;;0.00;0.00;;;;;;;;;;1746442;28;20715;-70
2022/10/10 02:24:00;;;;;;;0.00;0.00;;;;;;;;;;1746537;28;20249;-70
2022/10/10 02:24:53;;;;;;;0.00;0.00;;;;;;;;;;1746265;28;20206;-70
2022/10/10 02:25:47;;;;;;;0.00;0.00;;;;;;;;;;1746866;28;20226;-70
2022/10/10 02:26:40;;;;;;;0.00;0.00;;;;;;;;;;1741725;28;20226;-72
2022/10/10 02:27:34;;;;;;;0.00;0.00;;;;;;;;;;1739811;28;20261;-72
2022/10/10 02:28:30;;;;;;;0.00;0.00;;;;;;;;;;1739231;28;20191;-72
2022/10/10 02:29:24;;;;;;;0.00;0.00;;;;;;;;;;1739778;28;20288;-72
2022/10/10 02:30:18;;;;;;;0.00;0.00;;;;;;;;;;1739776;28;20657;-72
2022/10/10 02:31:10;;;;;;;0.00;0.00;;;;;;;;;;1739614;28;20245;-70
2022/10/10 02:32:05;;;;;;;0.00;0.00;;;;;;;;;;1739297;28;20234;-70
2022/10/10 02:33:00;;;;;;;0.00;0.00;;;;;;;;;;1739715;28;20294;-70
2022/10/10 02:33:55;;;;;;;0.00;0.00;;;;;;;;;;1739778;28;20502;-70
2022/10/10 02:34:49;;;;;;;0.00;0.00;;;;;;;;;;1739415;28;20210;-70
2022/10/10 02:35:42;;;;;;;0.00;0.00;;;;;;;;;;1739767;28;20292;-70
2022/10/10 02:36:34;;;;;;;0.00;0.00;;;;;;;;;;1739422;28;20199;-72
2022/10/10 02:37:27;;;;;;;0.00;0.00;;;;;;;;;;1740020;28;20217;-72
2022/10/10 02:38:19;;;;;;;0.03;0.03;;;;;;;;;;1739353;28;20234;-72
2022/10/10 02:39:13;;;;;;;0.00;0.00;;;;;;;;;;1739741;28;20246;-71
2022/10/10 02:40:05;;;;;;;0.00;0.00;;;;;;;;;;1739910;28;20237;-72
2022/10/10 02:41:02;;;;;;;0.00;0.00;;;;;;;;;;1739691;28;20210;-70
2022/10/10 02:41:53;;;;;;;0.00;0.00;;;;;;;;;;1739401;28;20230;-71
2022/10/10 02:42:46;;;;;;;0.00;0.00;;;;;;;;;;1739474;28;20552;-70
2022/10/10 02:43:39;;;;;;;0.00;0.00;;;;;;;;;;1739620;28;20230;-70
2022/10/10 02:44:31;;;;;;;0.00;0.00;;;;;;;;;;1739499;28;20533;-71
2022/10/10 02:45:24;;;;;;;0.00;0.00;;;;;;;;;;1740138;28;20198;-70
2022/10/10 02:46:16;;;;;;;0.00;0.00;;;;;;;;;;1740826;28;20214;-70
2022/10/10 02:47:08;;;;;;;0.00;0.00;;;;;;;;;;1740850;28;20274;-70
2022/10/10 02:48:00;;;;;;;0.00;0.00;;;;;;;;;;1741040;28;20632;-70
2022/10/10 02:48:52;;;;;;;0.00;0.00;;;;;;;;;;1741033;28;20659;-70
2022/10/10 02:49:44;;;;;;;0.00;0.00;;;;;;;;;;1740892;28;20264;-70
2022/10/10 02:50:35;;;;;;;0.00;0.00;;;;;;;;;;1741521;28;20676;-70
2022/10/10 02:51:27;;;;;;;0.00;0.00;;;;;;;;;;1741085;28;20198;-70
2022/10/10 02:52:18;;;;;;;0.00;0.00;;;;;;;;;;1740334;28;20354;-70
2022/10/10 02:53:10;;;;;;;0.00;0.00;;;;;;;;;;1740317;28;20314;-70
2022/10/10 02:54:01;;;;;;;0.00;0.00;;;;;;;;;;1741247;28;20257;-70
2022/10/10 02:54:54;;;;;;;0.00;0.00;;;;;;;;;;1740747;28;20217;-70
2022/10/10 02:55:45;;;;;;;0.10;0.10;;;;;;;;;;1741508;28;20285;-70
2022/10/10 02:56:37;;;;;;;0.00;0.00;;;;;;;;;;1740908;28;20227;-70
2022/10/10 02:57:28;;;;;;;0.00;0.00;;;;;;;;;;1740645;28;20237;-70
2022/10/10 02:58:20;;;;;;;0.00;0.00;;;;;;;;;;1746299;28;20242;-70
2022/10/10 02:59:11;;;;;;;0.00;0.00;;;;;;;;;;1748569;28;20244;-70
2022/10/10 03:00:05;;;;;;;0.00;0.00;;;;;;;;;;1748696;28;20201;-71
2022/10/10 03:00:57;;;;;;;0.00;0.00;;;;;;;;;;1748721;28;20234;-71
2022/10/10 03:01:49;;;;;;;0.00;0.00;;;;;;;;;;1747885;28;20252;-71
2022/10/10 03:02:40;;;;;;;0.00;0.00;;;;;;;;;;1747640;28;20225;-71
2022/10/10 03:03:32;;;;;;;0.00;0.00;;;;;;;;;;1747390;28;20509;-71
2022/10/10 03:04:23;;;;;;;0.00;0.00;;;;;;;;;;1748051;28;20510;-71
2022/10/10 03:05:15;;;;;;;0.00;0.00;;;;;;;;;;1747837;28;20268;-72
2022/10/10 03:06:07;;;;;;;0.00;0.00;;;;;;;;;;1747862;28;20244;-72
2022/10/10 03:06:58;;;;;;;0.00;0.00;;;;;;;;;;1747860;28;20208;-71
2022/10/10 03:07:50;;;;;;;0.00;0.00;;;;;;;;;;1747539;28;20608;-71
2022/10/10 03:08:41;;;;;;;0.00;0.00;;;;;;;;;;1747631;28;20623;-72
2022/10/10 03:09:33;;;;;;;0.00;0.00;;;;;;;;;;1746847;28;20202;-72
2022/10/10 03:10:25;;;;;;;0.00;0.00;;;;;;;;;;1748179;28;20202;-72
2022/10/10 03:11:16;;;;;;;0.00;0.00;;;;;;;;;;1747523;28;20249;-72
2022/10/10 03:12:08;;;;;;;0.00;0.00;;;;;;;;;;1747559;28;20264;-71
2022/10/10 03:12:59;;;;;;;0.00;0.00;;;;;;;;;;1747680;28;20321;-71
2022/10/10 03:13:51;;;;;;;0.00;0.00;;;;;;;;;;1747504;28;20222;-71
2022/10/10 03:14:42;;;;;;;0.00;0.00;;;;;;;;;;1747663;28;20833;-71
2022/10/10 03:15:34;;;;;;;0.00;0.00;;;;;;;;;;1748225;28;20244;-71
2022/10/10 03:16:27;;;;;;;0.00;0.00;;;;;;;;;;1747792;28;20214;-71
2022/10/10 03:17:19;;;;;;;0.00;0.00;;;;;;;;;;1747574;28;20210;-71
2022/10/10 03:18:10;;;;;;;0.00;0.00;;;;;;;;;;1747542;28;20252;-71
2022/10/10 03:19:03;;;;;;;0.00;0.00;;;;;;;;;;1747531;28;20222;-71
2022/10/10 03:19:54;;;;;;;0.00;0.00;;;;;;;;;;1747332;28;20605;-71
2022/10/10 03:20:46;;;;;;;0.00;0.00;;;;;;;;;;1748231;28;20205;-71
2022/10/10 03:21:37;;;;;;;0.10;0.10;;;;;;;;;;1747450;28;20639;-70
2022/10/10 03:22:29;;;;;;;0.00;0.00;;;;;;;;;;1747747;28;20213;-70
2022/10/10 03:23:21;;;;;;;0.00;0.00;;;;;;;;;;1747742;28;20234;-70
2022/10/10 03:24:13;;;;;;;0.00;0.00;;;;;;;;;;1747322;28;20198;-70
2022/10/10 03:25:04;;;;;;;0.00;0.00;;;;;;;;;;1747846;28;20234;-70
2022/10/10 03:25:56;;;;;;;0.00;0.00;;;;;;;;;;1747677;28;20615;-70
2022/10/10 03:26:47;;;;;;;0.10;0.10;;;;;;;;;;1747505;28;20683;-70
2022/10/10 03:27:40;;;;;;;0.00;0.00;;;;;;;;;;1747762;28;20281;-70
2022/10/10 03:28:31;;;;;;;0.00;0.00;;;;;;;;;;1747455;28;20578;-71
2022/10/10 03:29:23;;;;;;;0.00;0.00;;;;;;;;;;1747661;28;20582;-70
2022/10/10 03:30:14;;;;;;;0.00;0.00;;;;;;;;;;1740586;28;20238;-70
2022/10/10 03:31:06;;;;;;;0.00;0.00;;;;;;;;;;1740793;28;20284;-71
2022/10/10 03:31:59;;;;;;;0.10;0.10;;;;;;;;;;1740042;28;20305;-71
2022/10/10 03:32:51;;;;;;;0.00;0.00;;;;;;;;;;1740719;28;20229;-71
2022/10/10 03:33:42;;;;;;;0.00;0.00;;;;;;;;;;1740828;28;20607;-71
2022/10/10 03:34:34;;;;;;;0.00;0.00;;;;;;;;;;1740202;28;20210;-71
2022/10/10 03:35:25;;;;;;;0.00;0.00;;;;;;;;;;1740760;28;20230;-71
2022/10/10 03:36:17;;;;;;;0.00;0.00;;;;;;;;;;1740485;28;20261;-70
2022/10/10 03:37:09;;;;;;;0.00;0.00;;;;;;;;;;1740808;28;20277;-70
2022/10/10 03:38:01;;;;;;;0.03;0.03;;;;;;;;;;1740536;28;20230;-70
2022/10/10 03:38:53;;;;;;;0.00;0.00;;;;;;;;;;1740760;28;20243;-70
2022/10/10 03:39:44;;;;;;;0.00;0.00;;;;;;;;;;1740541;28;20231;-71
2022/10/10 03:40:39;;;;;;;0.00;0.00;;;;;;;;;;1740758;28;20199;-70
2022/10/10 03:41:31;;;;;;;0.00;0.00;;;;;;;;;;1740544;28;20210;-70
2022/10/10 03:42:22;;;;;;;0.00;0.00;;;;;;;;;;1740416;28;20297;-70
2022/10/10 03:43:15;;;;;;;0.00;0.00;;;;;;;;;;1740670;28;20608;-70
2022/10/10 03:44:06;;;;;;;0.00;0.00;;;;;;;;;;1740697;28;20664;-70
2022/10/10 03:44:58;;;;;;;0.00;0.00;;;;;;;;;;1740333;28;20207;-70
2022/10/10 03:45:50;;;;;;;0.00;0.00;;;;;;;;;;1740790;28;20199;-70
2022/10/10 03:46:42;;;;;;;0.00;0.00;;;;;;;;;;1740374;28;20314;-70
2022/10/10 03:47:34;;;;;;;0.00;0.00;;;;;;;;;;1740931;28;20310;-70
2022/10/10 03:48:26;;;;;;;0.00;0.00;;;;;;;;;;1740515;28;20226;-70
2022/10/10 03:49:17;;;;;;;0.00;0.00;;;;;;;;;;1740760;28;20234;-70
2022/10/10 03:50:10;;;;;;;0.00;0.00;;;;;;;;;;1740645;28;20333;-70
2022/10/10 03:51:01;;;;;;;0.00;0.00;;;;;;;;;;1740321;28;20234;-71
2022/10/10 03:51:53;;;;;;;0.00;0.00;;;;;;;;;;1739963;28;20272;-71
2022/10/10 03:52:44;;;;;;;0.00;0.00;;;;;;;;;;1740587;28;20207;-71
2022/10/10 03:53:36;;;;;;;0.00;0.00;;;;;;;;;;1739783;28;20235;-71
2022/10/10 03:54:27;;;;;;;0.10;0.10;;;;;;;;;;1740592;28;20260;-71
2022/10/10 03:55:19;;;;;;;0.00;0.00;;;;;;;;;;1740729;28;20264;-71
2022/10/10 03:56:11;;;;;;;0.00;0.00;;;;;;;;;;1740572;28;20289;-71
2022/10/10 03:57:03;;;;;;;0.00;0.00;;;;;;;;;;1740306;28;20583;-71
2022/10/10 03:57:54;;;;;;;0.08;0.08;;;;;;;;;;1740643;28;20238;-71
2022/10/10 03:58:46;;;;;;;0.00;0.00;;;;;;;;;;1740739;28;20203;-71
2022/10/10 03:59:37;;;;;;;0.00;0.00;;;;;;;;;;1740246;28;20230;-71
2022/10/10 04:00:29;;;;;;;0.00;0.00;;;;;;;;;;1741079;28;20203;-71
2022/10/10 04:01:20;;;;;;;0.00;0.00;;;;;;;;;;1740497;28;20289;-71
2022/10/10 04:02:12;;;;;;;0.00;0.00;;;;;;;;;;1740225;28;20310;-71
2022/10/10 04:03:05;;;;;;;0.00;0.00;;;;;;;;;;1740441;28;20243;-71
2022/10/10 04:03:56;;;;;;;0.00;0.00;;;;;;;;;;1740725;28;20268;-71
2022/10/10 04:04:48;;;;;;;0.00;0.00;;;;;;;;;;1740478;28;20203;-71
2022/10/10 04:05:39;;;;;;;0.00;0.00;;;;;;;;;;1740835;28;20656;-71
2022/10/10 04:06:31;;;;;;;0.00;0.00;;;;;;;;;;1740504;28;20207;-71
2022/10/10 04:07:22;;;;;;;0.10;0.10;;;;;;;;;;1740150;28;20565;-71
2022/10/10 04:08:15;;;;;;;0.08;0.08;;;;;;;;;;1740457;28;20211;-71
2022/10/10 04:09:06;;;;;;;0.00;0.00;;;;;;;;;;1739991;28;20218;-71
2022/10/10 04:09:58;;;;;;;0.00;0.00;;;;;;;;;;1740358;28;20230;-71
2022/10/10 04:10:49;;;;;;;0.00;0.00;;;;;;;;;;1740841;28;20671;-71
2022/10/10 04:11:42;;;;;;;0.00;0.00;;;;;;;;;;1745205;28;20209;-70
2022/10/10 04:12:33;;;;;;;0.00;0.00;;;;;;;;;;1747123;28;20210;-70
2022/10/10 04:13:26;;;;;;;0.00;0.00;;;;;;;;;;1746953;28;20717;-70
2022/10/10 04:14:17;;;;;;;0.00;0.00;;;;;;;;;;1747493;28;20210;-70
2022/10/10 04:15:09;;;;;;;0.00;0.00;;;;;;;;;;1747508;28;20350;-70
2022/10/10 04:16:01;;;;;;;0.00;0.00;;;;;;;;;;1747672;28;20293;-71
2022/10/10 04:16:53;;;;;;;0.00;0.00;;;;;;;;;;1747188;28;20275;-71
2022/10/10 04:17:44;;;;;;;0.00;0.00;;;;;;;;;;1747308;28;20202;-71
2022/10/10 04:18:37;;;;;;;0.00;0.00;;;;;;;;;;1747111;28;20678;-71
2022/10/10 04:19:28;;;;;;;0.00;0.00;;;;;;;;;;1747103;28;20735;-71
2022/10/10 04:20:20;;;;;;;0.00;0.00;;;;;;;;;;1747564;28;20202;-71
2022/10/10 04:21:11;;;;;;;0.00;0.00;;;;;;;;;;1747380;28;20249;-71
2022/10/10 04:22:04;;;;;;;0.00;0.00;;;;;;;;;;1740784;28;20536;-71
2022/10/10 04:22:55;;;;;;;0.00;0.00;;;;;;;;;;1740445;28;20326;-71
2022/10/10 04:23:47;;;;;;;0.08;0.08;;;;;;;;;;1739970;28;20226;-71
2022/10/10 04:24:38;;;;;;;0.00;0.00;;;;;;;;;;1740362;28;20312;-71
2022/10/10 04:25:30;;;;;;;0.00;0.00;;;;;;;;;;1740848;28;20635;-71
2022/10/10 04:26:21;;;;;;;0.00;0.00;;;;;;;;;;1740013;28;20748;-71
2022/10/10 04:27:13;;;;;;;0.00;0.00;;;;;;;;;;1740488;28;20199;-71
2022/10/10 04:28:04;;;;;;;0.00;0.00;;;;;;;;;;1739990;28;20561;-71
2022/10/10 04:28:56;;;;;;;0.00;0.00;;;;;;;;;;1740138;28;20203;-71
2022/10/10 04:29:47;;;;;;;0.00;0.00;;;;;;;;;;1740036;28;20215;-71
2022/10/10 04:30:39;;;;;;;0.00;0.00;;;;;;;;;;1740876;28;20203;-71
2022/10/10 04:31:30;;;;;;;0.00;0.00;;;;;;;;;;1740272;28;20246;-71
2022/10/10 04:32:22;;;;;;;0.00;0.00;;;;;;;;;;1740053;28;20537;-71
2022/10/10 04:33:13;;;;;;;0.00;0.00;;;;;;;;;;1740255;28;20677;-71
2022/10/10 04:34:07;;;;;;;0.00;0.00;;;;;;;;;;1740087;28;20532;-71
2022/10/10 04:34:58;;;;;;;0.00;0.00;;;;;;;;;;1740038;28;20584;-71
2022/10/10 04:35:50;;;;;;;0.00;0.00;;;;;;;;;;1740772;28;20226;-71
2022/10/10 04:36:41;;;;;;;0.00;0.00;;;;;;;;;;1739923;28;20226;-71
2022/10/10 04:37:34;;;;;;;0.10;0.10;;;;;;;;;;1740501;28;20210;-71
2022/10/10 04:38:25;;;;;;;0.00;0.00;;;;;;;;;;1739862;28;20660;-71
2022/10/10 04:39:17;;;;;;;0.00;0.00;;;;;;;;;;1740314;28;20462;-71
2022/10/10 04:40:09;;;;;;;0.00;0.00;;;;;;;;;;1739984;28;20245;-71
2022/10/10 04:41:01;;;;;;;0.00;0.00;;;;;;;;;;1740433;28;20207;-72
2022/10/10 04:41:52;;;;;;;0.00;0.00;;;;;;;;;;1739736;28;20325;-72
2022/10/10 04:42:44;;;;;;;0.00;0.00;;;;;;;;;;1740267;28;20195;-71
2022/10/10 04:43:36;;;;;;;0.00;0.00;;;;;;;;;;1746510;28;20241;-71
2022/10/10 04:44:28;;;;;;;0.00;0.00;;;;;;;;;;1746586;28;20748;-72
2022/10/10 04:45:19;;;;;;;0.00;0.00;;;;;;;;;;1747208;28;20636;-72
2022/10/10 04:46:11;;;;;;;0.00;0.00;;;;;;;;;;1746648;28;20275;-72
2022/10/10 04:47:02;;;;;;;0.05;0.05;;;;;;;;;;1747042;28;20233;-72
2022/10/10 04:47:54;;;;;;;0.00;0.00;;;;;;;;;;1746728;28;20206;-72
2022/10/10 04:48:45;;;;;;;0.08;0.08;;;;;;;;;;1747060;28;20282;-71
2022/10/10 04:49:40;;;;;;;0.00;0.00;;;;;;;;;;1746280;28;20229;-71
2022/10/10 04:50:32;;;;;;;0.00;0.00;;;;;;;;;;1747201;28;20808;-71
2022/10/10 04:51:24;;;;;;;0.00;0.00;;;;;;;;;;1746422;28;20213;-70
2022/10/10 04:52:15;;;;;;;0.00;0.00;;;;;;;;;;1746924;28;20635;-70
2022/10/10 04:53:07;;;;;;;0.00;0.00;;;;;;;;;;1745849;28;20207;-70
2022/10/10 04:53:58;;;;;;;0.00;0.00;;;;;;;;;;1747266;28;20656;-70
2022/10/10 04:54:50;;;;;;;0.00;0.00;;;;;;;;;;1746451;28;20203;-70
2022/10/10 04:55:43;;;;;;;0.00;0.00;;;;;;;;;;1747294;28;20246;-70
2022/10/10 04:56:35;;;;;;;0.00;0.00;;;;;;;;;;1746592;28;20202;-70
2022/10/10 04:57:26;;;;;;;0.00;0.00;;;;;;;;;;1747090;28;20244;-70
2022/10/10 04:58:18;;;;;;;0.00;0.00;;;;;;;;;;1746616;28;20600;-70
2022/10/10 04:59:09;;;;;;;0.00;0.00;;;;;;;;;;1747090;28;20655;-70
2022/10/10 05:00:04;;;;;;;0.00;0.00;;;;;;;;;;1746318;28;20201;-70
2022/10/10 05:00:55;;;;;;;0.00;0.00;;;;;;;;;;1747044;28;20214;-71
2022/10/10 05:01:48;;;;;;;0.00;0.00;;;;;;;;;;1745961;28;20301;-71
2022/10/10 05:02:39;;;;;;;0.00;0.00;;;;;;;;;;1747184;28;20211;-71
2022/10/10 05:03:31;;;;;;;0.00;0.00;;;;;;;;;;1746230;28;20190;-71
2022/10/10 05:04:22;;;;;;;0.00;0.00;;;;;;;;;;1738105;28;20234;-71
2022/10/10 05:05:15;;;;;;;0.00;0.00;;;;;;;;;;1736949;28;20226;-71
2022/10/10 05:06:06;;;;;;;0.00;0.00;;;;;;;;;;1739780;28;20559;-71
2022/10/10 05:06:58;;;;;;;0.00;0.00;;;;;;;;;;1740938;28;20203;-71
2022/10/10 05:07:49;;;;;;;0.08;0.08;;;;;;;;;;1746309;28;20226;-71
2022/10/10 05:08:41;;;;;;;0.00;0.00;;;;;;;;;;1746284;28;20202;-71
2022/10/10 05:09:32;;;;;;;0.00;0.00;;;;;;;;;;1746269;28;20722;-71
2022/10/10 05:10:25;;;;;;;0.00;0.00;;;;;;;;;;1744856;28;20198;-71
2022/10/10 05:11:16;;;;;;;0.00;0.00;;;;;;;;;;1734463;28;20239;-71
2022/10/10 05:12:08;;;;;;;0.05;0.05;;;;;;;;;;1739741;28;20686;-71
2022/10/10 05:12:59;;;;;;;0.00;0.00;;;;;;;;;;1739968;28;20602;-71
2022/10/10 05:13:51;;;;;;;0.00;0.00;;;;;;;;;;1740159;28;20197;-71
2022/10/10 05:14:42;;;;;;;0.00;0.00;;;;;;;;;;1740086;28;20207;-71
2022/10/10 05:15:35;;;;;;;0.10;0.10;;;;;;;;;;1740584;28;20696;-71
2022/10/10 05:16:26;;;;;;;0.00;0.00;;;;;;;;;;1740031;28;20217;-71